Main page
METAR-TAF:

METAR-TAF

Airports :

Oil platform

Sleipner, Norway

latitude: 58-22-00N, longitude: 001-54-25E, elevation: 50 m

Current weather observation

The report was made 30 minutes ago, at 07:20 UTC
Wind 29 kt from the South
Temperature 15°C
Humidity 82%
Pressure 994 hPa
Visibility 10 km or more

METAR: ENSL 180720Z AUTO 19029KT 9999NDV FEW017/// BKN090/// 15/12 Q0994 W13/S4

Time: 09:50 (07:50 UTC)


TAF: missing

Weather observations and forecasts of more than 4000 airports (METAR and TAF reports).

The available stations are represented by yellow and red dots on the map.

Hover mouse over dot to see the name of the station.

Then click to see weather observations and forecasts.

To change the map : click on the green buttons with a black cross to zoom in, on the green button with a dash to zoom out, or on the green arrows for adjacent maps.


METAR-TAF: